createdAt,value
2018-07-13T00:00:15.304Z,20.97
2018-07-13T00:01:25.374Z,20.91
2018-07-13T00:02:35.439Z,20.98
2018-07-13T00:03:45.536Z,20.85
2018-07-13T00:04:55.354Z,20.88
2018-07-13T00:06:05.474Z,20.78
2018-07-13T00:07:15.552Z,20.82
2018-07-13T00:08:25.633Z,20.83
2018-07-13T00:09:35.699Z,20.78
2018-07-13T00:10:45.767Z,20.76
2018-07-13T00:11:55.573Z,20.78
2018-07-13T00:13:05.654Z,20.79
2018-07-13T00:14:15.744Z,20.81
2018-07-13T00:15:25.572Z,20.68
2018-07-13T00:16:35.392Z,20.68
2018-07-13T00:17:45.472Z,20.64
2018-07-13T00:18:55.535Z,20.71
2018-07-13T00:20:05.374Z,20.64
2018-07-13T00:21:15.451Z,20.72
2018-07-13T00:22:25.563Z,20.71
2018-07-13T00:23:35.649Z,20.67
2018-07-13T00:24:45.503Z,20.71
2018-07-13T00:25:55.576Z,20.74
2018-07-13T00:27:05.386Z,20.68
2018-07-13T00:28:15.488Z,20.74
2018-07-13T00:29:25.316Z,20.71
2018-07-13T00:30:35.427Z,20.68
2018-07-13T00:31:45.530Z,20.68
2018-07-13T00:32:55.616Z,20.61
2018-07-13T00:34:05.685Z,20.66
2018-07-13T00:35:15.758Z,20.63
2018-07-13T00:36:25.839Z,20.64
2018-07-13T00:37:35.924Z,20.6
2018-07-13T00:38:46.011Z,20.58
2018-07-13T00:39:56.127Z,20.58
2018-07-13T00:41:06.199Z,20.61
2018-07-13T00:42:16.276Z,20.56
2018-07-13T00:43:26.344Z,20.61
2018-07-13T00:44:36.433Z,20.53
2018-07-13T00:45:46.556Z,20.54
2018-07-13T00:46:56.629Z,20.48
2018-07-13T00:48:06.721Z,20.51
2018-07-13T00:49:16.526Z,20.57
2018-07-13T00:50:26.328Z,20.46
2018-07-13T00:51:36.132Z,20.48
2018-07-13T00:52:46.211Z,20.38
2018-07-13T00:53:56.278Z,20.51
2018-07-13T00:55:05.815Z,20.44
2018-07-13T00:56:15.895Z,20.46
2018-07-13T00:57:25.755Z,20.46
2018-07-13T00:58:35.588Z,20.4
2018-07-13T00:59:45.663Z,20.38
2018-07-13T01:00:55.726Z,20.44
2018-07-13T01:02:05.802Z,20.53
2018-07-13T01:03:15.613Z,20.53
2018-07-13T01:04:25.411Z,20.49
2018-07-13T01:05:35.483Z,20.53
2018-07-13T01:06:45.558Z,20.56
2018-07-13T01:07:55.620Z,20.51
2018-07-13T01:09:05.421Z,20.58
2018-07-13T01:10:15.507Z,20.54
2018-07-13T01:11:25.570Z,20.54
2018-07-13T01:12:35.672Z,20.57
2018-07-13T01:13:45.737Z,20.61
2018-07-13T01:14:55.807Z,20.51
2018-07-13T01:16:05.625Z,20.58
2018-07-13T01:17:15.712Z,20.54
2018-07-13T01:18:25.524Z,20.51
2018-07-13T01:19:35.582Z,20.48
2018-07-13T01:20:45.401Z,20.53
2018-07-13T01:21:55.490Z,20.44
2018-07-13T01:23:05.587Z,20.53
2018-07-13T01:24:15.648Z,20.46
2018-07-13T01:25:25.447Z,20.46
2018-07-13T01:26:35.007Z,20.37
2018-07-13T01:27:44.827Z,20.4
2018-07-13T01:28:54.901Z,20.38
2018-07-13T01:30:04.704Z,20.29
2018-07-13T01:31:14.511Z,20.27
2018-07-13T01:32:24.336Z,20.26
2018-07-13T01:33:34.119Z,20.3
2018-07-13T01:34:43.934Z,20.34
2018-07-13T01:35:54.001Z,20.29
2018-07-13T01:37:04.089Z,20.37
2018-07-13T01:38:14.207Z,20.38
2018-07-13T01:39:24.274Z,20.35
2018-07-13T01:40:34.352Z,20.53
2018-07-13T01:41:44.420Z,20.44
2018-07-13T01:42:54.500Z,20.48
2018-07-13T01:44:04.580Z,20.42
2018-07-13T01:45:14.672Z,20.46
2018-07-13T01:46:24.486Z,20.54
2018-07-13T01:47:34.563Z,20.44
2018-07-13T01:48:44.631Z,20.61
2018-07-13T01:49:54.691Z,20.66
2018-07-13T01:51:04.523Z,20.66
2018-07-13T01:52:14.620Z,20.63
2018-07-13T01:53:24.431Z,20.71
2018-07-13T01:54:34.534Z,20.78
2018-07-13T01:55:44.622Z,20.75
2018-07-13T01:56:54.826Z,20.79
2018-07-13T01:58:04.899Z,20.88
2018-07-13T01:59:14.976Z,20.79
2018-07-13T02:00:24.786Z,20.78
2018-07-13T02:01:34.866Z,20.78
2018-07-13T02:02:44.930Z,20.78
2018-07-13T02:03:55.003Z,20.82
2018-07-13T02:05:05.097Z,20.81
2018-07-13T02:06:15.182Z,20.78
2018-07-13T02:07:25.262Z,20.78
2018-07-13T02:08:35.329Z,20.76
2018-07-13T02:09:45.419Z,20.75
2018-07-13T02:10:55.520Z,20.85
2018-07-13T02:12:05.325Z,20.81
2018-07-13T02:13:15.386Z,20.78
2018-07-13T02:14:24.944Z,20.79
2018-07-13T02:15:35.014Z,20.83
2018-07-13T02:16:45.091Z,20.85
2018-07-13T02:17:54.980Z,20.86
2018-07-13T02:19:05.086Z,20.82
2018-07-13T02:20:15.157Z,20.9
2018-07-13T02:21:24.721Z,20.96
2018-07-13T02:22:35.036Z,20.96
2018-07-13T02:23:45.107Z,20.96
2018-07-13T02:24:55.173Z,20.94
2018-07-13T02:26:05.240Z,20.96
2018-07-13T02:27:15.319Z,20.88
2018-07-13T02:28:25.442Z,20.94
2018-07-13T02:29:35.514Z,20.91
2018-07-13T02:30:45.428Z,20.86
2018-07-13T02:31:55.508Z,20.94
2018-07-13T02:33:05.588Z,20.86
2018-07-13T02:34:15.673Z,20.91
2018-07-13T02:35:25.750Z,20.88
2018-07-13T02:36:35.843Z,20.94
2018-07-13T02:37:45.925Z,20.9
2018-07-13T02:38:56.131Z,20.98
2018-07-13T02:40:06.347Z,20.93
2018-07-13T02:41:16.462Z,20.93
2018-07-13T02:42:26.320Z,20.97
2018-07-13T02:43:36.405Z,20.94
2018-07-13T02:44:46.473Z,20.98
2018-07-13T02:45:56.572Z,20.94
2018-07-13T02:47:06.633Z,20.91
2018-07-13T02:48:16.725Z,21.03
2018-07-13T02:49:26.811Z,21.04
2018-07-13T02:50:36.887Z,21.13
2018-07-13T02:51:47.040Z,21.08
2018-07-13T02:52:57.123Z,21.09
2018-07-13T02:54:07.268Z,21.19
2018-07-13T02:55:17.348Z,21.18
2018-07-13T02:56:27.417Z,21.21
2018-07-13T02:57:37.232Z,21.23
2018-07-13T02:58:47.298Z,21.16
2018-07-13T02:59:57.376Z,21.31
2018-07-13T03:01:07.495Z,21.33
2018-07-13T03:02:17.558Z,21.28
2018-07-13T03:03:27.642Z,21.31
2018-07-13T03:35:34.138Z,19.49
2018-07-13T03:36:44.198Z,19.52
2018-07-13T03:37:54.255Z,19.68
2018-07-13T03:39:04.315Z,19.6
2018-07-13T03:40:14.378Z,19.6
2018-07-13T03:41:24.433Z,19.72
2018-07-13T03:42:34.226Z,19.8
2018-07-13T03:43:44.036Z,19.97
2018-07-13T03:44:53.848Z,20.11
2018-07-13T03:46:03.659Z,20.16
2018-07-13T03:47:13.230Z,20.22
2018-07-13T03:48:23.395Z,20.37
2018-07-13T03:49:33.685Z,20.51
2018-07-13T03:50:43.758Z,20.58
2018-07-13T03:51:53.573Z,20.66
2018-07-13T03:53:03.644Z,20.72
2018-07-13T03:54:13.609Z,20.9
2018-07-13T03:55:23.919Z,20.9
2018-07-13T03:56:33.977Z,21.11
2018-07-13T03:57:43.794Z,21.18
2018-07-13T03:58:53.889Z,21.21
2018-07-13T04:00:03.968Z,21.33
2018-07-13T04:01:14.044Z,21.45
2018-07-13T04:02:23.852Z,21.58
2018-07-13T04:03:33.680Z,21.56
2018-07-13T04:04:43.230Z,21.64
2018-07-13T04:05:53.310Z,21.68
2018-07-13T04:07:03.513Z,21.7
2018-07-13T04:08:13.889Z,21.8
2018-07-13T04:09:23.966Z,21.76
2018-07-13T04:10:33.776Z,21.86
2018-07-13T04:11:43.679Z,21.9
2018-07-13T04:12:53.851Z,21.97
2018-07-13T04:14:03.918Z,21.99
2018-07-13T04:15:13.978Z,22.16
2018-07-13T04:16:23.534Z,22.16
2018-07-13T04:17:33.612Z,22.26
2018-07-13T04:18:43.671Z,22.29
2018-07-13T04:19:53.741Z,22.34
2018-07-13T04:21:03.551Z,22.45
2018-07-13T04:22:13.448Z,22.52
2018-07-13T04:23:23.319Z,22.51
2018-07-13T04:24:33.393Z,22.63
2018-07-13T04:25:43.198Z,22.66
2018-07-13T04:26:53.279Z,23.01
2018-07-13T04:28:03.351Z,24.82
2018-07-13T04:29:13.413Z,26.81
2018-07-13T04:30:23.216Z,28.2
2018-07-13T04:31:33.286Z,29.48
2018-07-13T04:32:43.090Z,30.4
2018-07-13T04:33:53.178Z,31.28
2018-07-13T04:35:02.980Z,31.98
2018-07-13T04:36:13.058Z,32.62
2018-07-13T04:37:22.870Z,33.24
2018-07-13T04:38:32.952Z,33.73
2018-07-13T04:39:43.083Z,34.1
2018-07-13T04:40:53.302Z,34.32
2018-07-13T04:42:03.431Z,34.75
2018-07-13T04:43:13.503Z,35.09
2018-07-13T04:44:23.310Z,35.31
2018-07-13T04:45:33.404Z,35.55
2018-07-13T04:46:43.478Z,35.71
2018-07-13T04:47:53.585Z,35.87
2018-07-13T04:49:03.139Z,35.99
2018-07-13T04:50:13.395Z,36.09
2018-07-13T04:51:23.449Z,36.21
2018-07-13T04:52:33.264Z,36.22
2018-07-13T04:53:43.345Z,36.21
2018-07-13T04:54:53.161Z,36.28
2018-07-13T04:56:03.247Z,36.26
2018-07-13T04:57:13.308Z,36.28
2018-07-13T04:58:23.391Z,36.39
2018-07-13T04:59:33.214Z,36.55
2018-07-13T05:00:43.415Z,36.63
2018-07-13T05:01:53.797Z,36.62
2018-07-13T05:03:04.079Z,36.65
2018-07-13T05:04:13.889Z,36.78
2018-07-13T05:05:23.749Z,36.78
2018-07-13T05:06:33.829Z,36.9
2018-07-13T05:07:43.895Z,37
2018-07-13T05:08:54.017Z,37.08
2018-07-13T05:10:03.849Z,37.08
2018-07-13T05:11:13.942Z,37.05
2018-07-13T05:12:23.765Z,37.07
2018-07-13T05:13:33.846Z,37.09
2018-07-13T05:14:43.939Z,37.09
2018-07-13T05:15:54.028Z,37.05
2018-07-13T05:17:03.908Z,37.12
2018-07-13T05:18:13.723Z,37.05
2018-07-13T05:19:23.527Z,37
2018-07-13T05:20:33.661Z,36.96
2018-07-13T05:21:43.745Z,36.9
2018-07-13T05:22:53.820Z,36.88
2018-07-13T05:24:03.903Z,36.8
2018-07-13T05:25:13.996Z,36.86
2018-07-13T05:26:24.063Z,36.9
2018-07-13T05:27:34.133Z,36.86
2018-07-13T05:28:44.207Z,36.84
2018-07-13T05:29:54.287Z,36.89
2018-07-13T05:31:04.357Z,36.81
2018-07-13T05:32:14.441Z,36.7
2018-07-13T05:33:24.564Z,36.63
2018-07-13T05:34:34.643Z,36.59
2018-07-13T05:35:44.717Z,36.62
2018-07-13T05:36:54.798Z,36.51
2018-07-13T05:38:04.629Z,36.36
2018-07-13T05:39:14.700Z,36.34
2018-07-13T05:40:24.769Z,36.34
2018-07-13T05:41:34.574Z,36.43
2018-07-13T05:42:44.384Z,36.39
2018-07-13T05:43:54.487Z,36.41
2018-07-13T05:45:04.571Z,36.34
2018-07-13T05:46:14.393Z,36.24
2018-07-13T05:47:24.468Z,36.26
2018-07-13T05:48:34.540Z,36.32
2018-07-13T05:49:44.813Z,36.24
2018-07-13T05:50:55.115Z,36.25
2018-07-13T05:52:04.947Z,36.09
2018-07-13T05:53:14.768Z,36.14
2018-07-13T05:54:24.588Z,36.12
2018-07-13T05:55:34.662Z,35.98
2018-07-13T05:56:44.747Z,35.86
2018-07-13T05:57:54.827Z,35.74
2018-07-13T05:59:04.907Z,35.61
2018-07-13T06:00:14.992Z,35.57
2018-07-13T06:01:25.071Z,35.53
2018-07-13T06:02:35.155Z,35.5
2018-07-13T06:03:45.237Z,35.5
2018-07-13T06:04:55.456Z,35.39
2018-07-13T06:06:05.260Z,35.3
2018-07-13T06:07:15.330Z,35.09
2018-07-13T06:08:25.407Z,34.96
2018-07-13T06:09:35.237Z,34.72
2018-07-13T06:10:45.411Z,34.45
2018-07-13T06:11:55.240Z,34.32
2018-07-13T06:13:05.321Z,34.24
2018-07-13T06:14:15.391Z,34.05
2018-07-13T06:15:25.457Z,34
2018-07-13T06:16:35.024Z,33.81
2018-07-13T06:17:45.113Z,33.62
2018-07-13T06:18:55.230Z,33.53
2018-07-13T06:20:05.328Z,33.36
2018-07-13T06:21:15.429Z,33.17
2018-07-13T06:22:25.244Z,33.17
2018-07-13T06:23:35.371Z,32.93
2018-07-13T06:24:45.436Z,32.52
2018-07-13T06:25:55.508Z,32.28
2018-07-13T06:27:05.592Z,32.12
2018-07-13T06:28:15.669Z,31.93
2018-07-13T06:29:25.521Z,31.98
2018-07-13T06:30:35.593Z,32.01
2018-07-13T06:31:45.413Z,32.01
2018-07-13T06:32:55.281Z,32.09
2018-07-13T06:34:05.369Z,32.01
2018-07-13T06:35:15.496Z,32.09
2018-07-13T06:36:25.313Z,32.13
2018-07-13T06:37:35.391Z,32.03
2018-07-13T06:38:45.230Z,32.05
2018-07-13T06:39:55.321Z,31.94
2018-07-13T06:41:05.442Z,31.86
2018-07-13T06:42:15.496Z,31.88
2018-07-13T06:43:25.310Z,31.78
2018-07-13T06:44:35.422Z,31.71
2018-07-13T06:45:45.515Z,31.71
2018-07-13T06:46:55.592Z,31.53
2018-07-13T06:48:05.719Z,31.55
2018-07-13T06:49:15.798Z,31.5
2018-07-13T06:50:26.070Z,31.38
2018-07-13T06:51:36.324Z,31.26
2018-07-13T06:52:46.133Z,31.19
2018-07-13T06:53:55.972Z,30.99
2018-07-13T06:55:06.054Z,30.93
2018-07-13T06:56:15.607Z,30.78
2018-07-13T06:57:25.431Z,30.75
2018-07-13T06:58:35.523Z,30.7
2018-07-13T06:59:45.604Z,30.52
2018-07-13T07:00:55.426Z,30.47
2018-07-13T07:02:05.515Z,30.45
2018-07-13T07:03:15.600Z,30.39
2018-07-13T07:04:25.733Z,30.39
2018-07-13T07:05:35.797Z,30.32
2018-07-13T07:06:45.635Z,30.16
2018-07-13T07:07:55.717Z,30.18
2018-07-13T07:09:05.781Z,30.1
2018-07-13T07:10:15.879Z,30.09
2018-07-13T07:11:25.963Z,30.03
2018-07-13T07:12:36.037Z,29.98
2018-07-13T07:13:46.126Z,29.94
2018-07-13T07:14:56.190Z,29.79
2018-07-13T07:16:06.260Z,29.67
2018-07-13T07:17:16.366Z,29.45
2018-07-13T07:18:26.449Z,29.51
2018-07-13T07:19:36.535Z,29.45
2018-07-13T07:20:46.605Z,29.35
2018-07-13T07:21:56.442Z,29.39
2018-07-13T07:23:06.276Z,29.45
2018-07-13T07:24:16.401Z,29.48
2018-07-13T07:25:26.472Z,29.48
2018-07-13T07:26:36.281Z,29.54
2018-07-13T07:27:46.102Z,29.43
2018-07-13T07:28:56.173Z,29.52
2018-07-13T07:30:06.256Z,29.58
2018-07-13T07:31:16.054Z,29.48
2018-07-13T07:32:26.119Z,29.48
2018-07-13T07:33:36.210Z,29.48
2018-07-13T07:34:46.299Z,29.51
2018-07-13T07:35:56.415Z,29.52
2018-07-13T07:37:06.249Z,29.57
2018-07-13T07:38:16.309Z,29.63
2018-07-13T07:39:26.203Z,29.6
2018-07-13T07:40:36.275Z,29.65
2018-07-13T07:41:46.136Z,29.69
2018-07-13T07:42:56.215Z,29.75
2018-07-13T07:44:06.565Z,29.76
2018-07-13T07:45:16.443Z,29.7
2018-07-13T07:46:26.530Z,29.72
2018-07-13T07:47:36.616Z,29.69
2018-07-13T07:48:46.436Z,29.79
2018-07-13T07:49:56.028Z,29.79
2018-07-13T07:51:06.269Z,29.75
2018-07-13T07:52:16.359Z,29.82
2018-07-13T07:53:26.445Z,29.76
2018-07-13T07:54:36.547Z,29.76
2018-07-13T07:55:46.362Z,29.88
2018-07-13T07:56:56.181Z,29.76
2018-07-13T07:58:06.262Z,29.84
2018-07-13T07:59:16.353Z,29.87
2018-07-13T08:00:26.448Z,29.79
2018-07-13T08:01:36.515Z,29.92
2018-07-13T08:02:46.500Z,29.89
2018-07-13T08:03:56.658Z,29.81
2018-07-13T08:05:06.751Z,29.88
2018-07-13T08:06:17.311Z,29.77
2018-07-13T08:07:27.638Z,29.76
2018-07-13T08:08:37.804Z,29.77
2018-07-13T08:09:47.916Z,29.76
2018-07-13T08:10:58.007Z,29.81
2018-07-13T08:12:07.817Z,29.88
2018-07-13T08:13:17.897Z,29.97
2018-07-13T08:14:28.143Z,30.06
2018-07-13T08:15:38.311Z,30.03
2018-07-13T08:16:48.416Z,30.13
2018-07-13T08:17:58.510Z,30.13
2018-07-13T08:19:08.633Z,30.06
2018-07-13T08:20:18.721Z,30.14
2018-07-13T08:21:28.816Z,30.11
2018-07-13T08:22:38.910Z,30.16
2018-07-13T08:23:48.980Z,30.14
2018-07-13T08:24:58.796Z,30.21
2018-07-13T08:26:08.631Z,30.25
2018-07-13T08:27:18.726Z,30.26
2018-07-13T08:28:28.808Z,30.31
2018-07-13T08:29:38.897Z,30.29
2018-07-13T08:30:48.971Z,30.37
2018-07-13T08:31:59.067Z,30.29
2018-07-13T08:33:09.159Z,30.31
2018-07-13T08:34:18.977Z,30.35
2018-07-13T08:35:29.050Z,30.37
2018-07-13T08:36:39.139Z,30.32
2018-07-13T08:37:49.383Z,30.39
2018-07-13T08:38:59.362Z,30.37
2018-07-13T08:40:09.458Z,30.26
2018-07-13T08:41:19.539Z,30.29
2018-07-13T08:42:29.662Z,30.24
2018-07-13T08:43:39.720Z,30.18
2018-07-13T08:44:49.532Z,30.13
2018-07-13T08:45:59.825Z,30.18
2018-07-13T08:47:09.989Z,30.14
2018-07-13T08:48:20.141Z,30.18
2018-07-13T08:49:30.263Z,30.22
2018-07-13T08:50:40.156Z,30.25
2018-07-13T08:51:50.518Z,30.29
2018-07-13T08:53:00.377Z,30.28
2018-07-13T08:54:10.461Z,30.34
2018-07-13T08:55:20.291Z,30.26
2018-07-13T08:56:30.379Z,30.35
2018-07-13T08:57:40.462Z,30.39
2018-07-13T08:58:50.280Z,30.45
2018-07-13T09:00:00.098Z,30.42
2018-07-13T09:01:10.171Z,30.48
2018-07-13T09:02:20.273Z,30.57
2018-07-13T09:03:29.830Z,30.64
2018-07-13T09:04:39.764Z,30.62
2018-07-13T09:05:49.887Z,30.77
2018-07-13T09:07:00.310Z,30.69
2018-07-13T09:08:10.443Z,30.78
2018-07-13T09:09:20.582Z,30.73
2018-07-13T09:10:30.683Z,30.81
2018-07-13T09:11:40.529Z,30.7
2018-07-13T09:12:50.797Z,30.84
2018-07-13T09:14:01.135Z,30.91
2018-07-13T09:15:10.705Z,30.99
2018-07-13T09:16:20.794Z,31.06
2018-07-13T09:17:30.625Z,31.01
2018-07-13T09:18:40.722Z,31.04
2018-07-13T09:19:50.284Z,31.1
2018-07-13T09:21:00.373Z,31.18
2018-07-13T09:22:10.243Z,31.16
2018-07-13T09:23:20.330Z,31.19
2018-07-13T09:24:30.396Z,31.18
2018-07-13T09:25:40.199Z,31.21
2018-07-13T09:26:50.031Z,31.22
2018-07-13T09:28:00.108Z,31.25
2018-07-13T09:29:10.208Z,31.23
2018-07-13T09:30:20.300Z,31.26
2018-07-13T09:31:30.439Z,31.21
2018-07-13T09:32:40.522Z,31.19
2018-07-13T09:33:50.341Z,31.21
2018-07-13T09:35:00.471Z,31.28
2018-07-13T09:36:10.550Z,31.36
2018-07-13T09:37:20.645Z,31.43
2018-07-13T09:38:31.040Z,31.45
2018-07-13T09:39:41.125Z,31.4
2018-07-13T09:40:51.216Z,31.44
2018-07-13T09:42:00.783Z,31.59
2018-07-13T09:43:10.854Z,31.62
2018-07-13T09:44:20.770Z,31.81
2018-07-13T09:45:30.852Z,31.75
2018-07-13T09:46:41.162Z,31.82
2018-07-13T09:47:51.534Z,31.86
2018-07-13T09:49:01.353Z,31.86
2018-07-13T09:50:11.459Z,31.75
2018-07-13T09:51:21.537Z,31.81
2018-07-13T09:52:31.093Z,31.88
2018-07-13T09:53:41.425Z,31.9
2018-07-13T09:54:51.395Z,31.87
2018-07-13T09:56:01.569Z,31.94
2018-07-13T09:57:11.666Z,32.03
2018-07-13T09:58:21.514Z,32.09
2018-07-13T09:59:31.338Z,32
2018-07-13T10:00:41.997Z,32.01
2018-07-13T10:01:52.473Z,31.95
2018-07-13T10:03:02.288Z,32.08
2018-07-13T10:04:12.372Z,32.17
2018-07-13T10:05:22.463Z,32.31
2018-07-13T10:06:32.639Z,32.43
2018-07-13T10:07:42.772Z,32.38
2018-07-13T10:08:52.848Z,32.39
2018-07-13T10:10:02.929Z,32.47
2018-07-13T10:11:12.754Z,32.43
2018-07-13T10:12:22.621Z,32.56
2018-07-13T10:13:32.751Z,32.67
2018-07-13T10:14:42.946Z,32.65
2018-07-13T10:15:53.047Z,32.42
2018-07-13T10:17:03.125Z,32.47
2018-07-13T10:18:12.996Z,32.38
2018-07-13T10:19:23.067Z,32.49
2018-07-13T10:20:33.178Z,32.64
2018-07-13T10:21:43.292Z,32.72
2018-07-13T10:22:53.127Z,32.81
2018-07-13T10:24:04.205Z,32.79
2018-07-13T10:25:14.020Z,32.8
2018-07-13T10:26:23.845Z,32.86
2018-07-13T10:27:33.385Z,32.98
2018-07-13T10:28:43.192Z,33.2
2018-07-13T10:29:53.329Z,33.26
2018-07-13T10:31:03.154Z,33.4
2018-07-13T10:32:13.233Z,33.43
2018-07-13T10:33:23.319Z,33.55
2018-07-13T10:34:33.144Z,33.62
2018-07-13T10:35:43.256Z,33.61
2018-07-13T10:36:53.329Z,33.59
2018-07-13T10:38:03.160Z,33.52
2018-07-13T10:39:13.248Z,33.32
2018-07-13T10:40:23.059Z,33.44
2018-07-13T10:41:32.951Z,33.47
2018-07-13T10:42:43.032Z,33.4
2018-07-13T10:43:53.146Z,33.37
2018-07-13T10:45:02.992Z,33.26
2018-07-13T10:46:13.070Z,33.26
2018-07-13T10:47:23.200Z,33.2
2018-07-13T10:48:33.278Z,33.31
2018-07-13T10:49:43.347Z,33.4
2018-07-13T10:50:53.426Z,33.53
2018-07-13T10:52:03.243Z,33.61
2018-07-13T10:53:13.051Z,33.71
2018-07-13T10:54:22.594Z,33.78
2018-07-13T10:55:32.657Z,33.85
2018-07-13T10:56:42.738Z,33.87
2018-07-13T10:57:52.549Z,33.85
2018-07-13T10:59:02.650Z,33.92
2018-07-13T11:00:12.754Z,33.99
2018-07-13T11:01:22.842Z,34.06
2018-07-13T11:02:32.943Z,33.89
2018-07-13T11:03:42.779Z,33.61
2018-07-13T11:04:52.875Z,33.55
2018-07-13T11:06:02.986Z,33.36
2018-07-13T11:07:13.070Z,33.55
2018-07-13T11:08:22.896Z,33.74
2018-07-13T11:09:32.989Z,33.92
2018-07-13T11:10:42.548Z,33.97
2018-07-13T11:11:52.356Z,33.73
2018-07-13T11:13:02.180Z,33.44
2018-07-13T11:14:12.090Z,33.17
2018-07-13T11:15:22.172Z,33.05
2018-07-13T11:16:32.264Z,33.17
2018-07-13T11:17:42.346Z,33.61
2018-07-13T11:18:52.438Z,33.85
2018-07-13T11:20:01.995Z,34.36
2018-07-13T11:21:12.076Z,34.81
2018-07-13T11:22:21.699Z,35.01
2018-07-13T11:23:31.781Z,35.26
2018-07-13T11:24:41.875Z,34.94
2018-07-13T11:25:51.957Z,34.56
2018-07-13T11:27:02.053Z,34.41
2018-07-13T11:28:12.145Z,34.41
2018-07-13T11:29:22.216Z,34.24
2018-07-13T11:30:32.318Z,34.06
2018-07-13T11:31:42.391Z,33.71
2018-07-13T11:32:52.458Z,33.37
2018-07-13T11:34:02.350Z,33.2
2018-07-13T11:35:12.432Z,33.47
2018-07-13T11:36:22.282Z,33.69
2018-07-13T11:37:32.518Z,33.96
2018-07-13T11:38:42.685Z,34.15
2018-07-13T11:39:52.502Z,34.3
2018-07-13T11:41:02.588Z,34.66
2018-07-13T11:42:12.489Z,34.93
2018-07-13T11:43:22.591Z,35.2
2018-07-13T11:44:32.436Z,35.55
2018-07-13T11:45:42.543Z,35.96
2018-07-13T11:46:52.639Z,36.09
2018-07-13T11:48:02.749Z,36.15
2018-07-13T11:49:12.599Z,35.86
2018-07-13T11:50:22.742Z,35.55
2018-07-13T11:51:32.820Z,35.35
2018-07-13T11:52:42.917Z,35.24
2018-07-13T11:53:52.763Z,34.94
2018-07-13T11:55:02.593Z,34.81
2018-07-13T11:56:12.707Z,34.64
2018-07-13T11:57:22.792Z,34.58
2018-07-13T11:58:32.880Z,34.86
2018-07-13T11:59:42.712Z,34.94
2018-07-13T12:00:52.535Z,34.93
2018-07-13T12:02:02.693Z,35.06
2018-07-13T12:03:12.925Z,35.12
2018-07-13T12:04:22.746Z,35.18
2018-07-13T12:05:32.830Z,35.11
2018-07-13T12:06:42.926Z,35.24
2018-07-13T12:07:53.241Z,35.16
2018-07-13T12:09:02.904Z,35.38
2018-07-13T12:10:12.737Z,35.5
2018-07-13T12:11:22.816Z,35.68
2018-07-13T12:12:32.933Z,35.87
2018-07-13T12:13:43.107Z,35.61
2018-07-13T12:14:53.203Z,35.69
2018-07-13T12:16:03.278Z,35.76
2018-07-13T12:17:13.121Z,35.84
2018-07-13T12:18:23.251Z,35.61
2018-07-13T12:19:33.066Z,35.52
2018-07-13T12:20:43.164Z,35.34
2018-07-13T12:21:53.013Z,34.96
2018-07-13T12:23:03.089Z,35.02
2018-07-13T12:24:13.176Z,34.93
2018-07-13T12:25:23.261Z,34.72
2018-07-13T12:26:33.407Z,34.41
2018-07-13T12:27:43.513Z,34.29
2018-07-13T12:28:53.605Z,34.27
2018-07-13T12:30:03.687Z,34.08
2018-07-13T12:31:13.773Z,34.15
2018-07-13T12:32:23.719Z,34.21
2018-07-13T12:33:33.979Z,34.41
2018-07-13T12:34:44.052Z,34.61
2018-07-13T12:35:53.613Z,34.33
2018-07-13T12:37:03.718Z,34.17
2018-07-13T12:38:13.556Z,34.06
2018-07-13T12:39:23.376Z,34.15
2018-07-13T12:40:33.316Z,34.58
2018-07-13T12:41:43.396Z,34.96
2018-07-13T12:42:53.486Z,35.18
2018-07-13T12:44:03.314Z,35.46
2018-07-13T12:45:12.888Z,35.71
2018-07-13T12:46:22.972Z,35.65
2018-07-13T12:47:33.058Z,35.27
2018-07-13T12:48:43.136Z,35.08
2018-07-13T12:49:53.240Z,35.05
2018-07-13T12:51:03.064Z,34.79
2018-07-13T12:52:12.889Z,34.45
2018-07-13T12:53:22.971Z,34.3
2018-07-13T12:54:33.168Z,34.17
2018-07-13T12:55:43.446Z,34.1
2018-07-13T12:56:53.528Z,34
2018-07-13T12:58:03.361Z,33.92
2018-07-13T12:59:13.456Z,33.87
2018-07-13T13:00:23.597Z,33.73
2018-07-13T13:01:33.692Z,33.62
2018-07-13T13:02:43.787Z,34
2018-07-13T13:03:53.881Z,34.19
2018-07-13T13:05:03.992Z,34.48
2018-07-13T13:06:13.816Z,34.78
2018-07-13T13:07:23.902Z,34.94
2018-07-13T13:08:33.717Z,35.05
2018-07-13T13:09:43.815Z,35.2
2018-07-13T13:10:53.910Z,35.26
2018-07-13T13:12:04.005Z,35.53
2018-07-13T13:13:13.825Z,35.57
2018-07-13T13:14:23.920Z,35.72
2018-07-13T13:15:33.736Z,35.8
2018-07-13T13:16:43.824Z,35.95
2018-07-13T13:17:53.917Z,36.15
2018-07-13T13:19:04.012Z,36.17
2018-07-13T13:20:14.102Z,36.3
2018-07-13T13:21:24.183Z,36.28
2018-07-13T13:22:34.301Z,36.28
2018-07-13T13:23:44.390Z,36.32
2018-07-13T13:24:54.483Z,35.98
2018-07-13T13:26:04.562Z,35.83
2018-07-13T13:27:14.438Z,35.67
2018-07-13T13:28:24.602Z,35.67
2018-07-13T13:29:34.683Z,35.5
2018-07-13T13:30:44.494Z,35.31
2018-07-13T13:31:54.585Z,35.05
2018-07-13T13:33:04.424Z,35.2
2018-07-13T13:34:14.542Z,35.09
2018-07-13T13:35:24.631Z,34.87
2018-07-13T13:36:34.802Z,34.64
2018-07-13T13:37:44.906Z,34.36
2018-07-13T13:38:54.772Z,34.18
2018-07-13T13:40:04.868Z,34.02
2018-07-13T13:41:15.015Z,33.8
2018-07-13T13:42:25.116Z,33.63
2018-07-13T13:43:35.185Z,33.39
2018-07-13T13:44:45.269Z,33.18
2018-07-13T13:45:55.331Z,32.98
2018-07-13T13:47:05.451Z,32.71
2018-07-13T13:48:15.533Z,32.57
2018-07-13T13:49:25.616Z,32.52
2018-07-13T13:50:35.828Z,32.37
2018-07-13T13:51:45.928Z,32.24
2018-07-13T13:52:56.029Z,32.15
2018-07-13T13:54:06.134Z,32.17
2018-07-13T13:55:16.228Z,32.24
2018-07-13T13:56:26.346Z,32.27
2018-07-13T13:57:36.440Z,32.49
2018-07-13T13:58:46.543Z,32.79
2018-07-13T13:59:56.973Z,33.02
2018-07-13T14:01:07.171Z,32.83
2018-07-13T14:02:17.256Z,32.8
2018-07-13T14:03:27.348Z,32.74
2018-07-13T14:04:37.237Z,32.65
2018-07-13T14:05:47.325Z,32.56
2018-07-13T14:06:57.428Z,32.61
2018-07-13T14:08:07.576Z,32.72
2018-07-13T14:09:17.627Z,32.94
2018-07-13T14:10:27.990Z,32.96
2018-07-13T14:11:38.083Z,32.98
2018-07-13T14:12:48.171Z,32.98
2018-07-13T14:13:58.289Z,33.01
2018-07-13T14:15:08.097Z,32.9
2018-07-13T14:16:17.915Z,32.81
2018-07-13T14:17:28.043Z,32.69
2018-07-13T14:18:38.126Z,32.46
2018-07-13T14:19:48.219Z,32.38
2018-07-13T14:20:58.296Z,32.19
2018-07-13T14:22:08.377Z,32.15
2018-07-13T14:23:17.966Z,32.03
2018-07-13T14:24:28.065Z,31.9
2018-07-13T14:25:38.129Z,31.72
2018-07-13T14:26:48.191Z,31.55
2018-07-13T14:27:58.272Z,31.43
2018-07-13T14:29:08.359Z,31.06
2018-07-13T14:30:18.437Z,30.84
2018-07-13T14:31:28.568Z,30.71
2018-07-13T14:32:38.123Z,30.62
2018-07-13T14:33:47.959Z,30.57
2018-07-13T14:34:58.044Z,30.42
2018-07-13T14:36:08.105Z,30.47
2018-07-13T14:37:17.994Z,30.39
2018-07-13T14:38:27.828Z,30.45
2018-07-13T14:39:37.900Z,30.51
2018-07-13T14:40:47.759Z,30.51
2018-07-13T14:41:57.866Z,30.62
2018-07-13T14:43:07.739Z,30.7
2018-07-13T14:44:17.828Z,30.82
2018-07-13T14:45:27.924Z,30.79
2018-07-13T14:46:38.010Z,30.91
2018-07-13T14:47:47.907Z,31.01
2018-07-13T14:48:57.982Z,31.16
2018-07-13T14:50:08.065Z,31.34
2018-07-13T14:51:18.153Z,31.5
2018-07-13T14:52:28.260Z,31.55
2018-07-13T14:53:38.109Z,31.68
2018-07-13T14:54:48.200Z,31.6
2018-07-13T14:55:58.281Z,31.41
2018-07-13T14:57:08.501Z,31.15
2018-07-13T14:58:18.324Z,30.99
2018-07-13T14:59:28.392Z,30.73
2018-07-13T15:00:38.364Z,30.51
2018-07-13T15:01:48.453Z,30.4
2018-07-13T15:02:58.528Z,30.18
2018-07-13T15:04:09.053Z,30.07
2018-07-13T15:05:19.240Z,30.03
2018-07-13T15:06:30.142Z,30.03
2018-07-13T15:07:40.858Z,29.97
2018-07-13T15:08:50.939Z,29.97
2018-07-13T15:10:01.026Z,29.97
2018-07-13T15:11:11.188Z,30.04
2018-07-13T15:12:21.280Z,29.92
2018-07-13T15:13:31.376Z,29.88
2018-07-13T15:14:41.193Z,29.91
2018-07-13T15:15:50.756Z,29.89
2018-07-13T15:17:00.580Z,29.91
2018-07-13T15:18:10.665Z,30
2018-07-13T15:19:20.762Z,30.07
2018-07-13T15:20:30.877Z,30.11
2018-07-13T15:21:41.025Z,30.16
2018-07-13T15:22:51.280Z,30.34
2018-07-13T15:24:01.363Z,30.45
2018-07-13T15:25:10.936Z,30.48
2018-07-13T15:26:20.760Z,30.57
2018-07-13T15:27:30.852Z,30.56
2018-07-13T15:28:40.944Z,30.69
2018-07-13T15:29:51.040Z,30.75
2018-07-13T15:31:00.858Z,30.99
2018-07-13T15:32:11.119Z,31.01
2018-07-13T15:33:21.511Z,30.99
2018-07-13T15:34:31.588Z,31.08
2018-07-13T15:35:41.665Z,31.1